Time;durP1;ratioP1;P1;durP2;ratioP2;P2;SDS_P1;SDS_P2;PMS_P1;PMS_P2;Temp;Humidity;BMP_temperature;BMP_pressure;BME280_temperature;BME280_humidity;BME280_pressure;Samples;Min_cycle;Max_cycle;Signal;HPM_P1;HPM_P2
2024/02/13 00:00:55;;;;;;;;;;;;;;;8.49;100.00;100114.34;109221;1253;60108;-68
2024/02/13 00:03:23;;;;;;;;;;;;;;;8.42;100.00;100117.41;109337;1252;59939;-70
2024/02/13 00:05:52;;;;;;;;;;;;;;;8.32;100.00;100114.64;109346;1252;74621;-70
2024/02/13 00:08:19;;;;;;;;;;;;;;;8.22;100.00;100108.11;109303;1251;67785;-69
2024/02/13 00:10:56;;;;;;;;;;;;;;;8.12;100.00;100112.39;109396;1252;71751;-66
2024/02/13 00:13:24;;;;;;;;;;;;;;;8.04;100.00;100111.38;109328;1252;59794;-69
2024/02/13 00:15:51;;;;;;;;;;;;;;;7.99;100.00;100104.85;109365;1252;59745;-69
2024/02/13 00:18:19;;;;;;;;;;;;;;;7.97;100.00;100096.68;109340;1252;74361;-64
2024/02/13 00:20:47;;;;;;;;;;;;;;;8.00;100.00;100099.34;109394;1252;66086;-67
2024/02/13 00:23:17;;;;;;;;;;;;;;;8.03;100.00;100096.98;109462;1251;72699;-65
2024/02/13 00:25:44;;;;;;;;;;;;;;;8.02;100.00;100095.46;109484;1251;62650;-64
2024/02/13 00:28:12;;;;;;;;;;;;;;;7.99;100.00;100090.13;109405;1251;60114;-66
2024/02/13 00:30:40;;;;;;;;;;;;;;;7.95;100.00;100085.71;109487;1251;74210;-64
2024/02/13 00:33:08;;;;;;;;;;;;;;;7.90;100.00;100086.60;109460;1251;67515;-64
2024/02/13 00:35:35;;;;;;;;;;;;;;;7.85;100.00;100082.51;109483;1251;72672;-66
2024/02/13 00:38:03;;;;;;;;;;;;;;;7.78;100.00;100080.10;109418;1251;59740;-66
2024/02/13 00:40:31;;;;;;;;;;;;;;;7.75;100.00;100079.98;109319;1251;60212;-66
2024/02/13 00:42:58;;;;;;;;;;;;;;;7.70;100.00;100071.67;109417;1251;75556;-66
2024/02/13 00:45:27;;;;;;;;;;;;;;;7.68;100.00;100070.61;109491;1251;67801;-66
2024/02/13 00:47:56;;;;;;;;;;;;;;;7.65;100.00;100074.19;109400;1251;71374;-66
2024/02/13 00:50:23;;;;;;;;;;;;;;;7.63;100.00;100072.64;109456;1251;60141;-68
2024/02/13 00:52:51;;;;;;;;;;;;;;;7.62;100.00;100074.66;109456;1251;59693;-65
2024/02/13 00:55:18;;;;;;;;;;;;;;;7.60;100.00;100077.48;109456;1251;75521;-65
2024/02/13 00:57:46;;;;;;;;;;;;;;;7.55;100.00;100077.80;109479;1251;66969;-65
2024/02/13 01:00:14;;;;;;;;;;;;;;;7.51;100.00;100077.92;109444;1251;72608;-65
2024/02/13 01:02:42;;;;;;;;;;;;;;;7.45;100.00;100073.15;109384;1252;61733;-69
2024/02/13 01:05:09;;;;;;;;;;;;;;;7.41;100.00;100073.89;109329;1255;59884;-68
2024/02/13 01:07:37;;;;;;;;;;;;;;;7.40;100.00;100070.69;109457;1252;75629;-69
2024/02/13 01:10:06;;;;;;;;;;;;;;;7.37;100.00;100071.17;109383;1253;67414;-70
2024/02/13 01:12:34;;;;;;;;;;;;;;;7.34;100.00;100073.22;109331;1253;72677;-67
2024/02/13 01:15:02;;;;;;;;;;;;;;;7.29;100.00;100072.16;109451;1251;59748;-67
2024/02/13 01:17:29;;;;;;;;;;;;;;;7.24;100.00;100070.79;109449;1251;59798;-69
2024/02/13 01:19:57;;;;;;;;;;;;;;;7.20;100.00;100068.33;109445;1250;75543;-64
2024/02/13 01:22:25;;;;;;;;;;;;;;;7.16;100.00;100059.48;109237;1253;65717;-67
2024/02/13 01:24:52;;;;;;;;;;;;;;;7.11;100.00;100053.44;109446;1251;71680;-64
2024/02/13 01:27:20;;;;;;;;;;;;;;;7.07;100.00;100051.96;109394;1254;60120;-66
2024/02/13 01:29:47;;;;;;;;;;;;;;;7.05;100.00;100048.64;109447;1251;59784;-66
2024/02/13 01:32:16;;;;;;;;;;;;;;;7.03;100.00;100044.94;109499;1251;74242;-69
2024/02/13 01:34:44;;;;;;;;;;;;;;;7.00;100.00;100043.83;109369;1251;66650;-66
2024/02/13 01:37:12;;;;;;;;;;;;;;;6.98;100.00;100039.42;109385;1254;72580;-65
2024/02/13 01:39:39;;;;;;;;;;;;;;;6.96;100.00;100039.48;109477;1253;61734;-66
2024/02/13 01:42:09;;;;;;;;;;;;;;;6.95;100.00;100036.50;109460;1251;60120;-65
2024/02/13 01:44:37;;;;;;;;;;;;;;;6.94;100.00;100037.05;109384;1251;75766;-66
2024/02/13 01:47:05;;;;;;;;;;;;;;;6.95;100.00;100038.31;109328;1252;65735;-65
2024/02/13 01:49:32;;;;;;;;;;;;;;;6.98;100.00;100033.71;109335;1253;71327;-65
2024/02/13 01:52:00;;;;;;;;;;;;;;;6.99;100.00;100029.27;109456;1252;59713;-65
2024/02/13 01:54:29;;;;;;;;;;;;;;;6.98;100.00;100030.47;109363;1253;59906;-65
2024/02/13 01:56:56;;;;;;;;;;;;;;;6.94;100.00;100025.50;109273;1253;74135;-66
2024/02/13 01:59:25;;;;;;;;;;;;;;;6.92;100.00;100017.77;109321;1252;67064;-70
2024/02/13 02:01:54;;;;;;;;;;;;;;;6.91;100.00;100016.04;109313;1253;72693;-67
2024/02/13 02:04:22;;;;;;;;;;;;;;;6.88;100.00;100019.21;109316;1252;60034;-66
2024/02/13 02:06:50;;;;;;;;;;;;;;;6.85;100.00;100019.39;109275;1252;60653;-66
2024/02/13 02:09:18;;;;;;;;;;;;;;;6.83;100.00;100015.28;109348;1253;75479;-64
2024/02/13 02:11:46;;;;;;;;;;;;;;;6.81;100.00;100018.41;109342;1252;66132;-66
2024/02/13 02:14:14;;;;;;;;;;;;;;;6.80;100.00;100016.61;109335;1252;72877;-64
2024/02/13 02:16:42;;;;;;;;;;;;;;;6.79;100.00;100019.68;109275;1253;61789;-66
2024/02/13 02:19:09;;;;;;;;;;;;;;;6.77;100.00;100018.23;109319;1252;59764;-64
2024/02/13 02:21:37;;;;;;;;;;;;;;;6.73;100.00;100019.86;109359;1252;74287;-64
2024/02/13 02:24:06;;;;;;;;;;;;;;;6.68;100.00;100016.56;109357;1253;67394;-64
2024/02/13 02:26:33;;;;;;;;;;;;;;;6.64;100.00;100017.85;109289;1252;72712;-64
2024/02/13 02:29:01;;;;;;;;;;;;;;;6.58;100.00;100015.56;109277;1252;61065;-66
2024/02/13 02:31:31;;;;;;;;;;;;;;;6.53;100.00;100016.73;109327;1253;59696;-64
2024/02/13 02:33:59;;;;;;;;;;;;;;;6.49;100.00;100017.15;109335;1251;75633;-65
2024/02/13 02:36:27;;;;;;;;;;;;;;;6.45;100.00;100015.23;109422;1253;66782;-64
2024/02/13 02:38:54;;;;;;;;;;;;;;;6.38;100.00;100013.65;109368;1252;71100;-65
2024/02/13 02:41:22;;;;;;;;;;;;;;;6.34;100.00;100011.33;109393;1253;60461;-65
2024/02/13 02:43:49;;;;;;;;;;;;;;;6.30;100.00;100014.69;109399;1253;59661;-64
2024/02/13 02:46:17;;;;;;;;;;;;;;;6.25;100.00;100009.18;109376;1251;74555;-64
2024/02/13 02:48:44;;;;;;;;;;;;;;;6.22;100.00;100007.98;109408;1252;65160;-64
2024/02/13 02:51:12;;;;;;;;;;;;;;;6.21;100.00;100008.65;109323;1252;72711;-64
2024/02/13 02:53:40;;;;;;;;;;;;;;;6.19;100.00;100005.33;109405;1254;60101;-64
2024/02/13 02:56:10;;;;;;;;;;;;;;;6.16;100.00;100004.16;109352;1252;59868;-64
2024/02/13 02:58:38;;;;;;;;;;;;;;;6.10;100.00;100005.65;109425;1252;75553;-64
2024/02/13 03:01:08;;;;;;;;;;;;;;;6.01;100.00;100006.86;109331;1256;67431;-65
2024/02/13 03:03:36;;;;;;;;;;;;;;;5.95;100.00;100006.81;109381;1254;71377;-64
2024/02/13 03:06:05;;;;;;;;;;;;;;;5.90;100.00;100007.34;109397;1252;60900;-64
2024/02/13 03:08:32;;;;;;;;;;;;;;;5.83;100.00;100009.25;109396;1251;61009;-64
2024/02/13 03:11:00;;;;;;;;;;;;;;;5.79;100.00;100013.84;109318;1251;75547;-65
2024/02/13 03:13:28;;;;;;;;;;;;;;;5.76;100.00;100015.83;109293;1256;65026;-64
2024/02/13 03:15:55;;;;;;;;;;;;;;;5.74;100.00;100012.20;109396;1251;72837;-64
2024/02/13 03:18:24;;;;;;;;;;;;;;;5.73;100.00;100007.36;109395;1251;59859;-64
2024/02/13 03:20:52;;;;;;;;;;;;;;;5.73;100.00;100005.25;109413;1252;60196;-64
2024/02/13 03:23:19;;;;;;;;;;;;;;;5.72;100.00;100005.54;109188;1253;76721;-64
2024/02/13 03:25:47;;;;;;;;;;;;;;;5.72;100.00;100007.27;109417;1251;66313;-64
2024/02/13 03:28:15;;;;;;;;;;;;;;;5.74;100.00;100004.09;109386;1252;73191;-64
2024/02/13 03:30:43;;;;;;;;;;;;;;;5.75;100.00;99999.50;109309;1252;59734;-65
2024/02/13 03:33:10;;;;;;;;;;;;;;;5.75;100.00;100001.79;109312;1252;59945;-64
2024/02/13 03:35:38;;;;;;;;;;;;;;;5.75;100.00;99999.56;109326;1252;74984;-64
2024/02/13 03:38:06;;;;;;;;;;;;;;;5.75;100.00;100003.83;109347;1252;66946;-64
2024/02/13 03:40:33;;;;;;;;;;;;;;;5.77;100.00;100007.73;109263;1252;72727;-64
2024/02/13 03:43:01;;;;;;;;;;;;;;;5.82;100.00;100008.96;109227;1252;61223;-64
2024/02/13 03:45:28;;;;;;;;;;;;;;;5.85;100.00;100008.31;109267;1252;59825;-66
2024/02/13 03:47:57;;;;;;;;;;;;;;;5.87;100.00;100004.50;109344;1252;74242;-64
2024/02/13 03:50:26;;;;;;;;;;;;;;;5.87;100.00;100002.72;109361;1253;65696;-64
2024/02/13 03:52:55;;;;;;;;;;;;;;;5.87;100.00;100004.48;109249;1250;71431;-64
2024/02/13 03:55:23;;;;;;;;;;;;;;;5.87;100.00;100006.25;109372;1253;60924;-65
2024/02/13 03:57:51;;;;;;;;;;;;;;;5.85;100.00;100010.04;109464;1252;60363;-64
2024/02/13 04:00:18;;;;;;;;;;;;;;;5.84;100.00;100016.05;109475;1250;75605;-65
2024/02/13 04:02:46;;;;;;;;;;;;;;;5.82;100.00;100025.18;109485;1251;66927;-64
2024/02/13 04:05:14;;;;;;;;;;;;;;;5.78;100.00;100023.17;109433;1253;71449;-66
2024/02/13 04:07:43;;;;;;;;;;;;;;;5.75;100.00;100025.23;109422;1251;59762;-64
2024/02/13 04:10:10;;;;;;;;;;;;;;;5.71;100.00;100025.61;109504;1251;59898;-65
2024/02/13 04:12:38;;;;;;;;;;;;;;;5.68;100.00;100023.88;109490;1252;74136;-64
2024/02/13 04:15:05;;;;;;;;;;;;;;;5.66;100.00;100020.33;109351;1252;67001;-66
2024/02/13 04:17:33;;;;;;;;;;;;;;;5.64;100.00;100017.77;109322;1252;73188;-64
2024/02/13 04:20:01;;;;;;;;;;;;;;;5.64;100.00;100014.33;109338;1252;60821;-64
2024/02/13 04:22:28;;;;;;;;;;;;;;;5.66;100.00;100015.19;109337;1252;60305;-64
2024/02/13 04:24:56;;;;;;;;;;;;;;;5.68;100.00;100018.36;109397;1253;75420;-64
2024/02/13 04:27:24;;;;;;;;;;;;;;;5.69;100.00;100017.61;109348;1253;66935;-64
2024/02/13 04:29:52;;;;;;;;;;;;;;;5.68;100.00;100019.41;109437;1254;71139;-65
2024/02/13 04:32:20;;;;;;;;;;;;;;;5.68;100.00;100016.70;109450;1251;61791;-65
2024/02/13 04:34:48;;;;;;;;;;;;;;;5.66;100.00;100019.94;109427;1252;59788;-64
2024/02/13 04:37:15;;;;;;;;;;;;;;;5.66;100.00;100024.30;109457;1252;75465;-66
2024/02/13 04:39:43;;;;;;;;;;;;;;;5.64;100.00;100029.83;109403;1258;67044;-64
2024/02/13 04:42:11;;;;;;;;;;;;;;;5.60;100.00;100033.52;109445;1252;71207;-64
2024/02/13 04:44:38;;;;;;;;;;;;;;;5.56;100.00;100033.73;109405;1251;59729;-65
2024/02/13 04:47:06;;;;;;;;;;;;;;;5.54;100.00;100031.11;109444;1251;59890;-64
2024/02/13 04:49:34;;;;;;;;;;;;;;;5.52;100.00;100031.19;109362;1252;75005;-65
2024/02/13 04:52:01;;;;;;;;;;;;;;;5.51;100.00;100027.02;109394;1252;66970;-64
2024/02/13 04:54:29;;;;;;;;;;;;;;;5.52;100.00;100029.45;109449;1251;72814;-64
2024/02/13 04:56:57;;;;;;;;;;;;;;;5.55;100.00;100032.54;109432;1251;59862;-64
2024/02/13 04:59:27;;;;;;;;;;;;;;;5.59;100.00;100034.45;109430;1251;60045;-66
2024/02/13 05:01:55;;;;;;;;;;;;;;;5.63;100.00;100031.98;109466;1252;74704;-64
2024/02/13 05:09:42;;;;;;;;;;;;;;;5.78;100.00;100042.22;109368;1252;60329;-65
2024/02/13 05:12:10;;;;;;;;;;;;;;;5.81;100.00;100047.85;109334;1253;60032;-65
2024/02/13 05:14:37;;;;;;;;;;;;;;;5.84;100.00;100050.71;109378;1252;77560;-64
2024/02/13 05:17:05;;;;;;;;;;;;;;;5.86;100.00;100053.11;109323;1253;66779;-66
2024/02/13 05:19:32;;;;;;;;;;;;;;;5.87;100.00;100057.95;109271;1253;72805;-65
2024/02/13 05:22:00;;;;;;;;;;;;;;;5.86;100.00;100060.77;109408;1252;60028;-65
2024/02/13 05:24:28;;;;;;;;;;;;;;;5.90;100.00;100066.17;109321;1252;59859;-65
2024/02/13 05:26:55;;;;;;;;;;;;;;;5.93;100.00;100071.84;109318;1253;74204;-65
2024/02/13 05:29:23;;;;;;;;;;;;;;;5.98;100.00;100077.39;109372;1253;65703;-66
2024/02/13 05:31:52;;;;;;;;;;;;;;;6.05;100.00;100078.06;109217;1252;72880;-65
2024/02/13 05:34:20;;;;;;;;;;;;;;;6.13;100.00;100081.73;109356;1254;60512;-65
2024/02/13 05:36:48;;;;;;;;;;;;;;;6.21;100.00;100079.65;109301;1253;59709;-65
2024/02/13 05:39:16;;;;;;;;;;;;;;;6.29;100.00;100078.82;109285;1253;75521;-66
2024/02/13 05:41:43;;;;;;;;;;;;;;;6.39;100.00;100083.69;109460;1253;67526;-65
2024/02/13 05:44:11;;;;;;;;;;;;;;;6.50;100.00;100082.73;109430;1252;71470;-65
2024/02/13 05:46:38;;;;;;;;;;;;;;;6.64;100.00;100077.91;109264;1253;59747;-65
2024/02/13 05:49:06;;;;;;;;;;;;;;;6.79;100.00;100078.94;109450;1253;59683;-65
2024/02/13 05:51:34;;;;;;;;;;;;;;;6.93;100.00;100076.22;109402;1253;74077;-66
2024/02/13 05:54:05;;;;;;;;;;;;;;;7.10;100.00;100077.35;109305;1253;65230;-65
2024/02/13 05:56:35;;;;;;;;;;;;;;;7.28;100.00;100078.75;109307;1253;72690;-65
2024/02/13 05:59:03;;;;;;;;;;;;;;;7.46;100.00;100077.98;109140;1253;61946;-65
2024/02/13 06:01:31;;;;;;;;;;;;;;;7.67;100.00;100077.63;109188;1253;59695;-66
2024/02/13 06:04:01;;;;;;;;;;;;;;;7.89;100.00;100079.60;109207;1253;76061;-65
2024/02/13 06:06:29;;;;;;;;;;;;;;;8.15;100.00;100078.62;109492;1253;66912;-65
2024/02/13 06:08:56;;;;;;;;;;;;;;;8.45;100.00;100075.73;109460;1253;72359;-65
2024/02/13 06:11:25;;;;;;;;;;;;;;;8.72;100.00;100075.36;109192;1257;60233;-65
2024/02/13 06:13:56;;;;;;;;;;;;;;;9.00;100.00;100076.09;109259;1253;59815;-66
2024/02/13 06:16:23;;;;;;;;;;;;;;;9.26;100.00;100068.58;109337;1254;75559;-65
2024/02/13 06:18:51;;;;;;;;;;;;;;;9.52;100.00;100070.69;109173;1254;66824;-66
2024/02/13 06:21:19;;;;;;;;;;;;;;;9.77;100.00;100068.80;109008;1255;71430;-65
2024/02/13 06:23:51;;;;;;;;;;;;;;;10.04;100.00;100069.14;109332;1254;62450;-65
2024/02/13 06:26:19;;;;;;;;;;;;;;;10.29;100.00;100069.61;109184;1255;60149;-65
2024/02/13 06:28:47;;;;;;;;;;;;;;;10.50;100.00;100070.16;109367;1254;75492;-65
2024/02/13 06:31:15;;;;;;;;;;;;;;;10.69;100.00;100073.44;109128;1254;66990;-66
2024/02/13 06:33:43;;;;;;;;;;;;;;;10.90;100.00;100070.14;109091;1255;71777;-67
2024/02/13 06:36:11;;;;;;;;;;;;;;;11.05;100.00;100064.98;109375;1254;60210;-65
2024/02/13 06:38:38;;;;;;;;;;;;;;;11.15;100.00;100059.13;109174;1253;60276;-65
2024/02/13 06:41:08;;;;;;;;;;;;;;;11.22;100.00;100055.42;109205;1254;74242;-65
2024/02/13 06:43:35;;;;;;;;;;;;;;;11.26;100.00;100053.42;109354;1253;66296;-65
2024/02/13 06:46:03;;;;;;;;;;;;;;;11.31;100.00;100053.95;109275;1256;71279;-66
2024/02/13 06:48:31;;;;;;;;;;;;;;;11.34;100.00;100051.86;109333;1253;60240;-65
2024/02/13 06:50:59;;;;;;;;;;;;;;;11.39;100.00;100051.27;109314;1257;59833;-65
2024/02/13 06:53:27;;;;;;;;;;;;;;;11.42;100.00;100048.31;109351;1253;76470;-64
2024/02/13 06:55:55;;;;;;;;;;;;;;;11.38;100.00;100044.96;109268;1253;67023;-65
2024/02/13 06:58:22;;;;;;;;;;;;;;;11.27;100.00;100040.30;109298;1252;72823;-64
2024/02/13 07:00:51;;;;;;;;;;;;;;;11.21;100.00;100039.33;109310;1252;59759;-64
2024/02/13 07:03:19;;;;;;;;;;;;;;;11.20;100.00;100036.44;109348;1254;59734;-64
2024/02/13 07:05:47;;;;;;;;;;;;;;;11.16;100.00;100031.20;109322;1254;74610;-64
2024/02/13 07:08:15;;;;;;;;;;;;;;;11.08;100.00;100029.63;109256;1253;67489;-64
2024/02/13 07:10:43;;;;;;;;;;;;;;;10.96;100.00;100023.98;109263;1253;72411;-64
2024/02/13 07:13:10;;;;;;;;;;;;;;;10.82;100.00;100023.64;109235;1253;60236;-64
2024/02/13 07:15:38;;;;;;;;;;;;;;;10.70;100.00;100020.82;109187;1253;59867;-64
2024/02/13 07:18:07;;;;;;;;;;;;;;;10.57;100.00;100019.25;109184;1252;76556;-65
2024/02/13 07:20:35;;;;;;;;;;;;;;;10.49;100.00;100019.05;109280;1253;66896;-63
2024/02/13 07:23:03;;;;;;;;;;;;;;;10.43;100.00;100017.89;109243;1256;72713;-64
2024/02/13 07:25:31;;;;;;;;;;;;;;;10.39;100.00;100014.81;109257;1253;60335;-63
2024/02/13 07:27:58;;;;;;;;;;;;;;;10.43;100.00;100014.64;109232;1253;59733;-65
2024/02/13 07:30:26;;;;;;;;;;;;;;;10.47;100.00;100017.60;109213;1253;76006;-64
2024/02/13 07:32:54;;;;;;;;;;;;;;;10.50;100.00;100022.56;109318;1252;65668;-63
2024/02/13 07:35:22;;;;;;;;;;;;;;;10.54;100.00;100025.52;109260;1254;71463;-63
2024/02/13 07:37:50;;;;;;;;;;;;;;;10.56;100.00;100026.89;109373;1253;60125;-63
2024/02/13 07:40:17;;;;;;;;;;;;;;;10.59;100.00;100030.36;109295;1252;60350;-64
2024/02/13 07:42:45;;;;;;;;;;;;;;;10.63;100.00;100031.36;109303;1253;76277;-63
2024/02/13 07:45:13;;;;;;;;;;;;;;;10.68;100.00;100031.08;109301;1254;66763;-63
2024/02/13 07:47:41;;;;;;;;;;;;;;;10.77;100.00;100031.26;109368;1253;72817;-62
2024/02/13 07:50:09;;;;;;;;;;;;;;;10.86;100.00;100035.50;109308;1254;60261;-63
2024/02/13 07:52:37;;;;;;;;;;;;;;;10.96;100.00;100034.25;109342;1257;59716;-63
2024/02/13 07:55:05;;;;;;;;;;;;;;;11.03;100.00;100038.95;109289;1257;74225;-63
2024/02/13 07:57:35;;;;;;;;;;;;;;;11.17;100.00;100045.89;109337;1254;65744;-62
2024/02/13 08:00:03;;;;;;;;;;;;;;;11.31;100.00;100051.44;109350;1254;73334;-64
2024/02/13 08:02:31;;;;;;;;;;;;;;;11.49;100.00;100054.38;109303;1254;60215;-62
2024/02/13 08:04:59;;;;;;;;;;;;;;;11.63;100.00;100058.23;109340;1253;63061;-62
2024/02/13 08:07:27;;;;;;;;;;;;;;;11.70;100.00;100063.19;109223;1254;78886;-62
2024/02/13 08:09:56;;;;;;;;;;;;;;;11.73;100.00;100059.73;109338;1253;67403;-62
2024/02/13 08:12:24;;;;;;;;;;;;;;;11.79;100.00;100062.01;109262;1254;73139;-62
2024/02/13 08:14:52;;;;;;;;;;;;;;;11.87;100.00;100062.56;109198;1254;61859;-62
2024/02/13 08:17:20;;;;;;;;;;;;;;;11.95;100.00;100061.23;109487;1253;60294;-62
2024/02/13 08:19:47;;;;;;;;;;;;;;;11.98;100.00;100059.30;109339;1254;77879;-62
2024/02/13 08:22:18;;;;;;;;;;;;;;;11.93;100.00;100054.42;109334;1254;66122;-63
2024/02/13 08:24:45;;;;;;;;;;;;;;;11.76;100.00;100050.39;109286;1253;72772;-62
2024/02/13 08:27:18;;;;;;;;;;;;;;;11.60;100.00;100048.44;109317;1253;62052;-62
2024/02/13 08:29:46;;;;;;;;;;;;;;;11.46;100.00;100048.10;109312;1252;60694;-63
2024/02/13 08:32:14;;;;;;;;;;;;;;;11.30;100.00;100050.52;109330;1252;76138;-62
2024/02/13 08:34:41;;;;;;;;;;;;;;;11.20;100.00;100048.16;109199;1254;65854;-62
2024/02/13 08:37:10;;;;;;;;;;;;;;;11.15;100.00;100052.67;109298;1252;72916;-61
2024/02/13 08:39:38;;;;;;;;;;;;;;;11.15;100.00;100051.14;109479;1252;60124;-62
2024/02/13 08:42:06;;;;;;;;;;;;;;;11.20;100.00;100053.98;109418;1254;60896;-62
2024/02/13 08:44:34;;;;;;;;;;;;;;;11.26;100.00;100058.27;109363;1253;75467;-63
2024/02/13 08:47:02;;;;;;;;;;;;;;;11.34;100.00;100061.48;109442;1253;65657;-62
2024/02/13 08:49:30;;;;;;;;;;;;;;;11.40;100.00;100066.14;109402;1253;73157;-62
2024/02/13 08:51:58;;;;;;;;;;;;;;;11.43;100.00;100060.33;109364;1254;60593;-64
2024/02/13 08:54:26;;;;;;;;;;;;;;;11.44;100.00;100060.55;109475;1253;59980;-62
2024/02/13 08:56:53;;;;;;;;;;;;;;;11.48;100.00;100060.75;109424;1253;78551;-61
2024/02/13 08:59:21;;;;;;;;;;;;;;;11.53;100.00;100064.80;109477;1253;67015;-61
2024/02/13 09:01:48;;;;;;;;;;;;;;;11.58;100.00;100065.05;109435;1252;73209;-63
2024/02/13 09:04:16;;;;;;;;;;;;;;;11.64;100.00;100067.58;109388;1252;60734;-62
2024/02/13 09:06:44;;;;;;;;;;;;;;;11.67;100.00;100063.21;109467;1252;60050;-61
2024/02/13 09:09:12;;;;;;;;;;;;;;;11.70;100.00;100064.27;109461;1253;77806;-62
2024/02/13 09:11:40;;;;;;;;;;;;;;;11.72;100.00;100062.91;109322;1254;66904;-61
2024/02/13 09:14:09;;;;;;;;;;;;;;;11.72;100.00;100061.91;109381;1252;72718;-62
2024/02/13 09:16:37;;;;;;;;;;;;;;;11.72;100.00;100057.01;109260;1253;62681;-61
2024/02/13 09:19:07;;;;;;;;;;;;;;;11.68;100.00;100055.42;109459;1254;62203;-61
2024/02/13 09:21:35;;;;;;;;;;;;;;;11.62;100.00;100053.64;109421;1252;75655;-61
2024/02/13 09:24:04;;;;;;;;;;;;;;;11.63;100.00;100050.90;109410;1253;68879;-62
2024/02/13 09:26:31;;;;;;;;;;;;;;;11.64;100.00;100052.23;109401;1252;72443;-61
2024/02/13 09:29:00;;;;;;;;;;;;;;;11.68;100.00;100050.39;109413;1253;61058;-62
2024/02/13 09:31:29;;;;;;;;;;;;;;;11.68;100.00;100050.72;109431;1252;59893;-61
2024/02/13 09:33:57;;;;;;;;;;;;;;;11.75;100.00;100052.11;109389;1254;76666;-62
2024/02/13 09:36:25;;;;;;;;;;;;;;;11.83;100.00;100050.23;109391;1253;69864;-62
2024/02/13 09:38:53;;;;;;;;;;;;;;;11.87;100.00;100049.33;109387;1254;72775;-61
2024/02/13 09:41:20;;;;;;;;;;;;;;;11.92;100.00;100050.77;109354;1254;63674;-61
2024/02/13 09:43:48;;;;;;;;;;;;;;;11.96;100.00;100049.14;109368;1253;60303;-61
2024/02/13 09:46:18;;;;;;;;;;;;;;;11.93;100.00;100046.82;109364;1253;78073;-62
2024/02/13 09:48:46;;;;;;;;;;;;;;;11.97;100.00;100043.66;109438;1253;70104;-62
2024/02/13 09:51:18;;;;;;;;;;;;;;;12.02;100.00;100042.63;109409;1253;74782;-61
2024/02/13 09:53:46;;;;;;;;;;;;;;;12.03;100.00;100037.11;109387;1253;62192;-62
2024/02/13 09:56:15;;;;;;;;;;;;;;;12.01;100.00;100030.08;109381;1253;61903;-63
2024/02/13 09:58:44;;;;;;;;;;;;;;;11.93;100.00;100031.19;109379;1254;76978;-62
2024/02/13 10:01:11;;;;;;;;;;;;;;;11.85;100.00;100032.33;109377;1253;65658;-61
2024/02/13 10:03:39;;;;;;;;;;;;;;;11.82;100.00;100038.16;109413;1252;73198;-61
2024/02/13 10:06:06;;;;;;;;;;;;;;;11.77;100.00;100032.92;109380;1253;61026;-62
2024/02/13 10:08:34;;;;;;;;;;;;;;;11.67;100.00;100028.42;109391;1253;62395;-61
2024/02/13 10:11:03;;;;;;;;;;;;;;;11.63;100.00;100026.36;109429;1254;76075;-61
2024/02/13 10:13:31;;;;;;;;;;;;;;;11.59;100.00;100026.70;109437;1254;68423;-62
2024/02/13 10:15:59;;;;;;;;;;;;;;;11.58;100.00;100022.64;109374;1253;72873;-61
2024/02/13 10:18:27;;;;;;;;;;;;;;;11.54;100.00;100019.62;109392;1253;63478;-63
2024/02/13 10:20:55;;;;;;;;;;;;;;;11.49;100.00;100015.41;109410;1254;61679;-61
2024/02/13 10:23:24;;;;;;;;;;;;;;;11.45;100.00;100016.05;109415;1254;77863;-61
2024/02/13 10:25:53;;;;;;;;;;;;;;;11.43;100.00;100018.61;109351;1253;69603;-62
2024/02/13 10:28:24;;;;;;;;;;;;;;;11.38;100.00;100016.25;109311;1254;74792;-62
2024/02/13 10:30:52;;;;;;;;;;;;;;;11.32;100.00;100014.27;109292;1253;61188;-61
2024/02/13 10:33:21;;;;;;;;;;;;;;;11.30;100.00;100018.67;109307;1253;60871;-61
2024/02/13 10:35:52;;;;;;;;;;;;;;;11.32;100.00;100018.99;109282;1254;73870;-60
2024/02/13 10:38:23;;;;;;;;;;;;;;;11.32;100.00;100018.20;109326;1252;66922;-63
2024/02/13 10:40:55;;;;;;;;;;;;;;;11.34;100.00;100017.65;109400;1254;71412;-61
2024/02/13 10:43:23;;;;;;;;;;;;;;;11.34;100.00;100015.40;109386;1253;60436;-61
2024/02/13 10:45:50;;;;;;;;;;;;;;;11.35;100.00;100018.05;109420;1253;60827;-61
2024/02/13 10:48:27;;;;;;;;;;;;;;;11.33;100.00;100018.64;109374;1253;76672;-62
2024/02/13 10:50:57;;;;;;;;;;;;;;;11.30;100.00;100017.83;109432;1253;69151;-61
2024/02/13 10:53:25;;;;;;;;;;;;;;;11.22;100.00;100016.58;109400;1253;72544;-61
2024/02/13 10:55:54;;;;;;;;;;;;;;;11.11;100.00;100018.13;109388;1252;63494;-61
2024/02/13 10:58:22;;;;;;;;;;;;;;;11.03;100.00;100014.95;109275;1254;61544;-62
2024/02/13 11:00:58;;;;;;;;;;;;;;;10.96;100.00;100017.33;109441;1254;76282;-61
2024/02/13 11:03:27;;;;;;;;;;;;;;;10.89;100.00;100020.00;109296;1254;69702;-61
2024/02/13 11:05:54;;;;;;;;;;;;;;;10.81;100.00;100016.05;109257;1254;75431;-60
2024/02/13 11:08:23;;;;;;;;;;;;;;;10.72;100.00;100016.35;109230;1253;65049;-60
2024/02/13 11:10:52;;;;;;;;;;;;;;;10.67;100.00;100017.67;109298;1253;60722;-61
2024/02/13 11:13:21;;;;;;;;;;;;;;;10.66;100.00;100017.16;109303;1253;76627;-61
2024/02/13 11:15:51;;;;;;;;;;;;;;;10.63;100.00;100016.44;109325;1253;69585;-62
2024/02/13 11:18:18;;;;;;;;;;;;;;;10.59;100.00;100011.88;109272;1254;75127;-61
2024/02/13 11:20:46;;;;;;;;;;;;;;;10.57;100.00;100009.86;109384;1253;63009;-61
2024/02/13 11:23:15;;;;;;;;;;;;;;;10.52;100.00;100003.04;109181;1252;260693;-60
2024/02/13 11:25:56;;;;;;;;;;;;;;;10.53;100.00;100005.34;109328;1254;75495;-61
2024/02/13 11:28:31;;;;;;;;;;;;;;;10.52;100.00;100003.40;109300;1253;68668;-61
2024/02/13 11:30:58;;;;;;;;;;;;;;;10.54;100.00;100000.02;109429;1253;74658;-62
2024/02/13 11:33:27;;;;;;;;;;;;;;;10.56;100.00;99994.93;109298;1253;63197;-62
2024/02/13 11:35:57;;;;;;;;;;;;;;;10.60;100.00;99986.79;109281;1252;60869;-64
2024/02/13 11:38:26;;;;;;;;;;;;;;;10.66;100.00;99979.05;109271;1253;77839;-61
2024/02/13 11:40:56;;;;;;;;;;;;;;;10.72;100.00;99975.89;109278;1253;70676;-62
2024/02/13 11:43:24;;;;;;;;;;;;;;;10.81;100.00;99973.52;109197;1253;75539;-62
2024/02/13 11:45:52;;;;;;;;;;;;;;;10.96;100.00;99974.67;109264;1253;63777;-61
2024/02/13 11:48:23;;;;;;;;;;;;;;;11.17;100.00;99983.96;109428;1253;60770;-59
2024/02/13 11:50:52;;;;;;;;;;;;;;;11.37;100.00;100003.56;109239;1253;76481;-59
2024/02/13 11:53:20;;;;;;;;;;;;;;;11.46;100.00;100024.88;109290;1253;69196;-59
2024/02/13 11:55:49;;;;;;;;;;;;;;;11.54;100.00;100021.10;109267;1253;71410;-61
2024/02/13 11:58:19;;;;;;;;;;;;;;;11.59;100.00;100007.52;109249;1256;64506;-59
2024/02/13 12:00:57;;;;;;;;;;;;;;;11.67;100.00;100013.13;109281;1252;61096;-58
2024/02/13 12:03:25;;;;;;;;;;;;;;;11.78;100.00;100014.52;109385;1253;77612;-59
2024/02/13 12:05:53;;;;;;;;;;;;;;;11.88;100.00;100010.08;109244;1253;69470;-60
2024/02/13 12:08:22;;;;;;;;;;;;;;;11.91;100.00;100005.15;109242;1253;73664;-59
2024/02/13 12:10:51;;;;;;;;;;;;;;;11.95;100.00;100009.56;109219;1253;64001;-59
2024/02/13 12:13:19;;;;;;;;;;;;;;;11.99;100.00;100008.05;109236;1253;60706;-59
2024/02/13 12:15:47;;;;;;;;;;;;;;;12.01;100.00;100004.96;109246;1253;78464;-61
2024/02/13 12:18:17;;;;;;;;;;;;;;;12.03;100.00;99998.09;109254;1256;66137;-59
2024/02/13 12:20:49;;;;;;;;;;;;;;;12.04;100.00;99996.88;109262;1253;74868;-59
2024/02/13 12:23:17;;;;;;;;;;;;;;;12.09;100.00;99995.25;109236;1253;64389;-58
2024/02/13 12:25:49;;;;;;;;;;;;;;;12.19;100.00;99997.76;109234;1253;62112;-61
2024/02/13 12:28:17;;;;;;;;;;;;;;;12.30;100.00;99993.33;109276;1252;75014;-59
2024/02/13 12:30:46;;;;;;;;;;;;;;;12.36;100.00;99995.99;109299;1253;67967;-59
2024/02/13 12:33:20;;;;;;;;;;;;;;;12.38;100.00;100000.66;109293;1253;74852;-59